Terminal Aerodrome Forecast
Issued by NWS

Home | Current Version | Previous Version | Text Only | Print | Product List | Glossary On
Versions: 1 2 3 4 5 6 7 8 9 10 11 12 13 14 15 16
000
FTUS43 KFGF 022300
TAFBJI
TAF
KBJI 022333Z 0300/0324 24012G20KT P6SM BKN080
     FM030200 21006KT P6SM SCT080
     FM030500 VRB03KT P6SM SKC
     FM031300 13005KT P6SM SCT250=

USA.gov is the U.S. government's official web portal to all federal, state and local government web resources and services.